sensor_id;sensor_type;location;lat;lon;timestamp;temperature;humidity
21387;DHT22;10854;45.922;6.716;2023-04-19T00:02:25;6.50;99.90
21387;DHT22;10854;45.922;6.716;2023-04-19T00:04:55;6.50;99.90
21387;DHT22;10854;45.922;6.716;2023-04-19T00:07:24;6.40;99.90
21387;DHT22;10854;45.922;6.716;2023-04-19T00:09:52;6.40;99.90
21387;DHT22;10854;45.922;6.716;2023-04-19T00:12:20;6.30;99.90
21387;DHT22;10854;45.922;6.716;2023-04-19T00:14:49;6.20;99.90
21387;DHT22;10854;45.922;6.716;2023-04-19T00:17:17;6.10;99.90
21387;DHT22;10854;45.922;6.716;2023-04-19T00:19:46;6.10;99.90
21387;DHT22;10854;45.922;6.716;2023-04-19T00:22:15;6.10;99.90
21387;DHT22;10854;45.922;6.716;2023-04-19T00:24:45;6.00;99.90
21387;DHT22;10854;45.922;6.716;2023-04-19T00:27:13;6.00;99.90
21387;DHT22;10854;45.922;6.716;2023-04-19T00:29:42;6.00;99.90
21387;DHT22;10854;45.922;6.716;2023-04-19T00:32:10;6.00;99.90
21387;DHT22;10854;45.922;6.716;2023-04-19T00:34:39;6.00;99.90
21387;DHT22;10854;45.922;6.716;2023-04-19T00:37:09;6.00;99.90
21387;DHT22;10854;45.922;6.716;2023-04-19T00:39:38;6.00;99.90
21387;DHT22;10854;45.922;6.716;2023-04-19T00:42:06;6.00;99.90
21387;DHT22;10854;45.922;6.716;2023-04-19T00:44:35;6.00;99.90
21387;DHT22;10854;45.922;6.716;2023-04-19T00:47:03;6.00;99.90
21387;DHT22;10854;45.922;6.716;2023-04-19T00:49:32;5.90;99.90
21387;DHT22;10854;45.922;6.716;2023-04-19T00:52:01;5.90;99.90
21387;DHT22;10854;45.922;6.716;2023-04-19T00:54:30;5.80;99.90
21387;DHT22;10854;45.922;6.716;2023-04-19T00:56:59;5.70;99.90
21387;DHT22;10854;45.922;6.716;2023-04-19T00:59:29;5.70;99.90
21387;DHT22;10854;45.922;6.716;2023-04-19T01:01:57;5.70;99.90
21387;DHT22;10854;45.922;6.716;2023-04-19T01:04:26;5.60;99.90
21387;DHT22;10854;45.922;6.716;2023-04-19T01:06:54;5.60;99.90
21387;DHT22;10854;45.922;6.716;2023-04-19T01:09:23;5.60;99.90
21387;DHT22;10854;45.922;6.716;2023-04-19T01:11:54;5.50;99.90
21387;DHT22;10854;45.922;6.716;2023-04-19T01:14:22;5.50;99.90
21387;DHT22;10854;45.922;6.716;2023-04-19T01:16:51;5.50;99.90
21387;DHT22;10854;45.922;6.716;2023-04-19T01:19:19;5.50;99.90
21387;DHT22;10854;45.922;6.716;2023-04-19T01:21:48;5.60;99.90
21387;DHT22;10854;45.922;6.716;2023-04-19T01:24:17;5.60;99.90
21387;DHT22;10854;45.922;6.716;2023-04-19T01:26:45;5.60;99.90
21387;DHT22;10854;45.922;6.716;2023-04-19T01:29:13;5.50;99.90
21387;DHT22;10854;45.922;6.716;2023-04-19T01:31:42;5.40;99.90
21387;DHT22;10854;45.922;6.716;2023-04-19T01:34:16;5.40;99.90
21387;DHT22;10854;45.922;6.716;2023-04-19T01:36:44;5.30;99.90
21387;DHT22;10854;45.922;6.716;2023-04-19T01:39:13;5.20;99.90
21387;DHT22;10854;45.922;6.716;2023-04-19T01:41:42;5.20;99.90
21387;DHT22;10854;45.922;6.716;2023-04-19T01:44:10;5.10;99.90
21387;DHT22;10854;45.922;6.716;2023-04-19T01:46:39;5.10;99.90
21387;DHT22;10854;45.922;6.716;2023-04-19T01:49:09;5.00;99.90
21387;DHT22;10854;45.922;6.716;2023-04-19T01:51:38;4.90;99.90
21387;DHT22;10854;45.922;6.716;2023-04-19T01:54:08;4.90;99.90
21387;DHT22;10854;45.922;6.716;2023-04-19T01:56:36;4.90;99.90
21387;DHT22;10854;45.922;6.716;2023-04-19T01:59:04;4.80;99.90
21387;DHT22;10854;45.922;6.716;2023-04-19T02:01:33;4.80;99.90
21387;DHT22;10854;45.922;6.716;2023-04-19T02:04:02;4.80;99.90
21387;DHT22;10854;45.922;6.716;2023-04-19T02:06:30;4.70;99.90
21387;DHT22;10854;45.922;6.716;2023-04-19T02:09:02;4.70;99.90
21387;DHT22;10854;45.922;6.716;2023-04-19T02:11:30;4.70;99.90
21387;DHT22;10854;45.922;6.716;2023-04-19T02:13:59;4.60;99.90
21387;DHT22;10854;45.922;6.716;2023-04-19T02:16:27;4.60;99.90
21387;DHT22;10854;45.922;6.716;2023-04-19T02:18:55;4.60;99.90
21387;DHT22;10854;45.922;6.716;2023-04-19T02:21:24;4.70;99.90
21387;DHT22;10854;45.922;6.716;2023-04-19T02:23:52;4.70;99.90
21387;DHT22;10854;45.922;6.716;2023-04-19T02:26:21;4.80;99.90
21387;DHT22;10854;45.922;6.716;2023-04-19T02:28:52;4.90;99.90
21387;DHT22;10854;45.922;6.716;2023-04-19T02:31:20;5.00;99.90
21387;DHT22;10854;45.922;6.716;2023-04-19T02:33:49;5.20;99.90
21387;DHT22;10854;45.922;6.716;2023-04-19T02:36:18;5.20;99.90
21387;DHT22;10854;45.922;6.716;2023-04-19T02:38:46;5.20;99.90
21387;DHT22;10854;45.922;6.716;2023-04-19T02:41:15;5.20;99.90
21387;DHT22;10854;45.922;6.716;2023-04-19T02:43:43;5.10;99.90
21387;DHT22;10854;45.922;6.716;2023-04-19T02:46:11;5.10;99.90
21387;DHT22;10854;45.922;6.716;2023-04-19T02:48:40;5.00;99.90
21387;DHT22;10854;45.922;6.716;2023-04-19T02:51:14;4.90;99.90
21387;DHT22;10854;45.922;6.716;2023-04-19T02:53:43;4.90;99.90
21387;DHT22;10854;45.922;6.716;2023-04-19T02:56:12;4.90;99.90
21387;DHT22;10854;45.922;6.716;2023-04-19T02:58:40;4.90;99.90
21387;DHT22;10854;45.922;6.716;2023-04-19T03:01:08;4.80;99.90
21387;DHT22;10854;45.922;6.716;2023-04-19T03:03:37;4.80;99.90
21387;DHT22;10854;45.922;6.716;2023-04-19T03:06:07;4.70;99.90
21387;DHT22;10854;45.922;6.716;2023-04-19T03:08:36;4.70;99.90
21387;DHT22;10854;45.922;6.716;2023-04-19T03:11:05;4.70;99.90
21387;DHT22;10854;45.922;6.716;2023-04-19T03:13:34;4.70;99.90
21387;DHT22;10854;45.922;6.716;2023-04-19T03:16:02;4.80;99.90
21387;DHT22;10854;45.922;6.716;2023-04-19T03:18:31;4.80;99.90
21387;DHT22;10854;45.922;6.716;2023-04-19T03:20:59;4.80;99.90
21387;DHT22;10854;45.922;6.716;2023-04-19T03:23:28;4.70;99.90
21387;DHT22;10854;45.922;6.716;2023-04-19T03:25:57;4.70;99.90
21387;DHT22;10854;45.922;6.716;2023-04-19T03:28:25;4.60;99.90
21387;DHT22;10854;45.922;6.716;2023-04-19T03:30:53;4.60;99.90
21387;DHT22;10854;45.922;6.716;2023-04-19T03:33:23;4.50;99.90
21387;DHT22;10854;45.922;6.716;2023-04-19T03:35:51;4.40;99.90
21387;DHT22;10854;45.922;6.716;2023-04-19T03:38:19;4.30;99.90
21387;DHT22;10854;45.922;6.716;2023-04-19T03:40:48;4.30;99.90
21387;DHT22;10854;45.922;6.716;2023-04-19T03:43:18;4.20;99.90
21387;DHT22;10854;45.922;6.716;2023-04-19T03:45:46;4.10;99.90
21387;DHT22;10854;45.922;6.716;2023-04-19T03:48:14;4.10;99.90
21387;DHT22;10854;45.922;6.716;2023-04-19T03:50:43;4.10;99.90
21387;DHT22;10854;45.922;6.716;2023-04-19T03:53:11;4.00;99.90
21387;DHT22;10854;45.922;6.716;2023-04-19T03:55:39;3.90;99.90
21387;DHT22;10854;45.922;6.716;2023-04-19T03:58:08;3.90;99.90
21387;DHT22;10854;45.922;6.716;2023-04-19T04:00:37;3.90;99.90
21387;DHT22;10854;45.922;6.716;2023-04-19T04:03:05;3.90;99.90
21387;DHT22;10854;45.922;6.716;2023-04-19T04:05:34;3.90;99.90
21387;DHT22;10854;45.922;6.716;2023-04-19T04:08:02;3.90;99.90
21387;DHT22;10854;45.922;6.716;2023-04-19T04:10:31;3.90;99.90
21387;DHT22;10854;45.922;6.716;2023-04-19T04:12:59;4.00;99.90
21387;DHT22;10854;45.922;6.716;2023-04-19T04:15:28;4.10;99.90
21387;DHT22;10854;45.922;6.716;2023-04-19T04:17:56;4.20;99.90
21387;DHT22;10854;45.922;6.716;2023-04-19T04:20:24;4.30;99.90
21387;DHT22;10854;45.922;6.716;2023-04-19T04:22:53;4.30;99.90
21387;DHT22;10854;45.922;6.716;2023-04-19T04:25:21;4.20;99.90
21387;DHT22;10854;45.922;6.716;2023-04-19T04:27:50;4.20;99.90
21387;DHT22;10854;45.922;6.716;2023-04-19T04:30:19;4.20;99.90
21387;DHT22;10854;45.922;6.716;2023-04-19T04:32:47;4.10;99.90
21387;DHT22;10854;45.922;6.716;2023-04-19T04:35:18;4.10;99.90
21387;DHT22;10854;45.922;6.716;2023-04-19T04:37:46;4.00;99.90
21387;DHT22;10854;45.922;6.716;2023-04-19T04:40:15;4.00;99.90
21387;DHT22;10854;45.922;6.716;2023-04-19T04:42:44;3.90;99.90
21387;DHT22;10854;45.922;6.716;2023-04-19T04:45:12;4.00;99.90
21387;DHT22;10854;45.922;6.716;2023-04-19T04:47:40;4.00;99.90
21387;DHT22;10854;45.922;6.716;2023-04-19T04:50:10;4.00;99.90
21387;DHT22;10854;45.922;6.716;2023-04-19T04:52:39;4.00;99.90
21387;DHT22;10854;45.922;6.716;2023-04-19T04:55:07;3.90;99.90
21387;DHT22;10854;45.922;6.716;2023-04-19T04:57:37;3.80;99.90
21387;DHT22;10854;45.922;6.716;2023-04-19T05:00:06;3.80;99.90
21387;DHT22;10854;45.922;6.716;2023-04-19T05:02:36;3.80;99.90
21387;DHT22;10854;45.922;6.716;2023-04-19T05:05:04;3.70;99.90
21387;DHT22;10854;45.922;6.716;2023-04-19T05:07:33;3.70;99.90
21387;DHT22;10854;45.922;6.716;2023-04-19T05:10:01;3.70;99.90
21387;DHT22;10854;45.922;6.716;2023-04-19T05:12:31;3.70;99.90
21387;DHT22;10854;45.922;6.716;2023-04-19T05:14:59;3.70;99.90
21387;DHT22;10854;45.922;6.716;2023-04-19T05:17:27;3.80;99.90
21387;DHT22;10854;45.922;6.716;2023-04-19T05:19:56;3.80;99.90
21387;DHT22;10854;45.922;6.716;2023-04-19T05:22:24;3.80;99.90
21387;DHT22;10854;45.922;6.716;2023-04-19T05:24:53;3.80;99.90
21387;DHT22;10854;45.922;6.716;2023-04-19T05:27:22;3.80;99.90
21387;DHT22;10854;45.922;6.716;2023-04-19T05:29:50;3.80;99.90
21387;DHT22;10854;45.922;6.716;2023-04-19T05:32:18;3.80;99.90
21387;DHT22;10854;45.922;6.716;2023-04-19T05:34:47;3.90;99.90
21387;DHT22;10854;45.922;6.716;2023-04-19T05:37:16;3.80;99.90
21387;DHT22;10854;45.922;6.716;2023-04-19T05:39:44;3.80;99.90
21387;DHT22;10854;45.922;6.716;2023-04-19T05:42:12;3.90;99.90
21387;DHT22;10854;45.922;6.716;2023-04-19T05:44:41;3.80;99.90
21387;DHT22;10854;45.922;6.716;2023-04-19T05:47:09;3.90;99.90
21387;DHT22;10854;45.922;6.716;2023-04-19T05:49:40;3.90;99.90
21387;DHT22;10854;45.922;6.716;2023-04-19T05:52:09;3.90;99.90
21387;DHT22;10854;45.922;6.716;2023-04-19T05:54:39;4.00;99.90
21387;DHT22;10854;45.922;6.716;2023-04-19T05:57:07;4.10;99.90
21387;DHT22;10854;45.922;6.716;2023-04-19T05:59:36;4.10;99.90
21387;DHT22;10854;45.922;6.716;2023-04-19T06:02:06;4.10;99.90
21387;DHT22;10854;45.922;6.716;2023-04-19T06:04:35;4.20;99.90
21387;DHT22;10854;45.922;6.716;2023-04-19T06:07:03;4.30;99.90
21387;DHT22;10854;45.922;6.716;2023-04-19T06:09:34;4.70;99.90
21387;DHT22;10854;45.922;6.716;2023-04-19T06:12:02;5.20;99.90
21387;DHT22;10854;45.922;6.716;2023-04-19T06:14:31;6.00;99.90
21387;DHT22;10854;45.922;6.716;2023-04-19T06:16:59;6.80;99.90
21387;DHT22;10854;45.922;6.716;2023-04-19T06:19:28;7.60;99.90
21387;DHT22;10854;45.922;6.716;2023-04-19T06:21:56;8.30;99.90
21387;DHT22;10854;45.922;6.716;2023-04-19T06:24:24;9.00;99.90
21387;DHT22;10854;45.922;6.716;2023-04-19T06:26:53;9.60;99.90
21387;DHT22;10854;45.922;6.716;2023-04-19T06:29:21;10.10;99.90
21387;DHT22;10854;45.922;6.716;2023-04-19T06:31:53;10.50;99.90
21387;DHT22;10854;45.922;6.716;2023-04-19T06:34:22;10.90;97.00
21387;DHT22;10854;45.922;6.716;2023-04-19T06:36:50;11.20;94.20
21387;DHT22;10854;45.922;6.716;2023-04-19T06:39:19;11.50;92.60
21387;DHT22;10854;45.922;6.716;2023-04-19T06:41:48;11.90;91.60
21387;DHT22;10854;45.922;6.716;2023-04-19T06:44:16;12.30;90.00
21387;DHT22;10854;45.922;6.716;2023-04-19T06:46:45;12.80;86.60
21387;DHT22;10854;45.922;6.716;2023-04-19T06:49:14;13.20;81.60
21387;DHT22;10854;45.922;6.716;2023-04-19T06:51:42;13.50;78.70
21387;DHT22;10854;45.922;6.716;2023-04-19T06:54:11;13.40;75.30
21387;DHT22;10854;45.922;6.716;2023-04-19T06:56:41;13.40;73.20
21387;DHT22;10854;45.922;6.716;2023-04-19T06:59:13;13.50;73.40
21387;DHT22;10854;45.922;6.716;2023-04-19T07:01:43;13.70;73.00
21387;DHT22;10854;45.922;6.716;2023-04-19T07:04:13;13.90;72.30
21387;DHT22;10854;45.922;6.716;2023-04-19T07:06:42;14.20;70.90
21387;DHT22;10854;45.922;6.716;2023-04-19T07:09:10;14.40;70.20
21387;DHT22;10854;45.922;6.716;2023-04-19T07:11:39;14.80;68.60
21387;DHT22;10854;45.922;6.716;2023-04-19T07:14:07;15.10;67.50
21387;DHT22;10854;45.922;6.716;2023-04-19T07:16:35;15.50;66.30
21387;DHT22;10854;45.922;6.716;2023-04-19T07:19:05;15.60;63.50
21387;DHT22;10854;45.922;6.716;2023-04-19T07:21:34;15.40;62.30
21387;DHT22;10854;45.922;6.716;2023-04-19T07:24:02;15.20;62.20
21387;DHT22;10854;45.922;6.716;2023-04-19T07:26:31;15.20;62.20
21387;DHT22;10854;45.922;6.716;2023-04-19T07:29:00;15.30;62.60
21387;DHT22;10854;45.922;6.716;2023-04-19T07:31:28;15.40;61.40
21387;DHT22;10854;45.922;6.716;2023-04-19T07:33:57;15.60;60.70
21387;DHT22;10854;45.922;6.716;2023-04-19T07:36:25;15.80;60.00
21387;DHT22;10854;45.922;6.716;2023-04-19T07:38:54;16.00;59.40
21387;DHT22;10854;45.922;6.716;2023-04-19T07:41:23;16.10;58.90
21387;DHT22;10854;45.922;6.716;2023-04-19T07:43:51;16.30;58.50
21387;DHT22;10854;45.922;6.716;2023-04-19T07:46:19;16.40;58.00
21387;DHT22;10854;45.922;6.716;2023-04-19T07:48:48;16.50;58.10
21387;DHT22;10854;45.922;6.716;2023-04-19T07:51:17;16.70;57.80
21387;DHT22;10854;45.922;6.716;2023-04-19T07:53:46;17.00;57.30
21387;DHT22;10854;45.922;6.716;2023-04-19T07:56:15;17.20;56.40
21387;DHT22;10854;45.922;6.716;2023-04-19T07:58:43;17.40;56.20
21387;DHT22;10854;45.922;6.716;2023-04-19T08:01:13;17.70;56.10
21387;DHT22;10854;45.922;6.716;2023-04-19T08:03:41;18.10;55.40
21387;DHT22;10854;45.922;6.716;2023-04-19T08:06:10;18.30;54.50
21387;DHT22;10854;45.922;6.716;2023-04-19T08:08:39;18.40;54.00
21387;DHT22;10854;45.922;6.716;2023-04-19T08:11:09;18.40;53.80
21387;DHT22;10854;45.922;6.716;2023-04-19T08:13:37;18.50;53.20
21387;DHT22;10854;45.922;6.716;2023-04-19T08:16:06;18.70;53.50
21387;DHT22;10854;45.922;6.716;2023-04-19T08:18:37;19.00;53.10
21387;DHT22;10854;45.922;6.716;2023-04-19T08:21:06;18.90;52.10
21387;DHT22;10854;45.922;6.716;2023-04-19T08:23:34;18.50;52.30
21387;DHT22;10854;45.922;6.716;2023-04-19T08:26:07;18.10;53.00
21387;DHT22;10854;45.922;6.716;2023-04-19T08:28:36;17.90;53.50
21387;DHT22;10854;45.922;6.716;2023-04-19T08:31:06;17.90;53.80
21387;DHT22;10854;45.922;6.716;2023-04-19T08:33:34;17.80;54.10
21387;DHT22;10854;45.922;6.716;2023-04-19T08:36:03;17.80;54.20
21387;DHT22;10854;45.922;6.716;2023-04-19T08:38:32;17.90;53.70
21387;DHT22;10854;45.922;6.716;2023-04-19T08:41:00;18.00;53.80
21387;DHT22;10854;45.922;6.716;2023-04-19T08:43:29;18.40;53.80
21387;DHT22;10854;45.922;6.716;2023-04-19T08:46:00;18.70;53.30
21387;DHT22;10854;45.922;6.716;2023-04-19T08:48:29;19.00;52.50
21387;DHT22;10854;45.922;6.716;2023-04-19T08:51:01;19.10;52.60
21387;DHT22;10854;45.922;6.716;2023-04-19T08:53:34;19.40;52.10
21387;DHT22;10854;45.922;6.716;2023-04-19T08:56:04;19.50;51.30
21387;DHT22;10854;45.922;6.716;2023-04-19T08:58:41;19.60;51.20
21387;DHT22;10854;45.922;6.716;2023-04-19T09:01:12;19.70;50.00
21387;DHT22;10854;45.922;6.716;2023-04-19T09:03:44;19.70;49.50
21387;DHT22;10854;45.922;6.716;2023-04-19T09:06:25;19.70;49.30
21387;DHT22;10854;45.922;6.716;2023-04-19T09:09:19;19.60;50.00
21387;DHT22;10854;45.922;6.716;2023-04-19T09:11:56;19.50;50.40
21387;DHT22;10854;45.922;6.716;2023-04-19T09:14:26;19.70;51.10
21387;DHT22;10854;45.922;6.716;2023-04-19T09:17:15;20.10;50.80
21387;DHT22;10854;45.922;6.716;2023-04-19T09:19:54;20.30;48.90
21387;DHT22;10854;45.922;6.716;2023-04-19T09:22:24;20.30;49.20
21387;DHT22;10854;45.922;6.716;2023-04-19T09:24:54;20.40;49.20
21387;DHT22;10854;45.922;6.716;2023-04-19T09:27:45;20.40;49.20
21387;DHT22;10854;45.922;6.716;2023-04-19T09:30:14;20.70;49.50
21387;DHT22;10854;45.922;6.716;2023-04-19T09:32:48;21.30;49.20
21387;DHT22;10854;45.922;6.716;2023-04-19T09:35:17;21.70;47.80
21387;DHT22;10854;45.922;6.716;2023-04-19T09:38:07;21.70;47.20
21387;DHT22;10854;45.922;6.716;2023-04-19T09:40:35;21.60;46.80
21387;DHT22;10854;45.922;6.716;2023-04-19T09:43:04;21.50;47.50
21387;DHT22;10854;45.922;6.716;2023-04-19T09:45:45;21.60;47.50
21387;DHT22;10854;45.922;6.716;2023-04-19T09:48:14;21.80;47.30
21387;DHT22;10854;45.922;6.716;2023-04-19T09:50:59;22.30;47.10
21387;DHT22;10854;45.922;6.716;2023-04-19T09:53:31;22.60;46.20
21387;DHT22;10854;45.922;6.716;2023-04-19T09:56:02;22.50;45.00
21387;DHT22;10854;45.922;6.716;2023-04-19T09:58:33;22.30;44.80
21387;DHT22;10854;45.922;6.716;2023-04-19T10:01:10;21.90;45.20
21387;DHT22;10854;45.922;6.716;2023-04-19T10:03:45;21.90;45.70
21387;DHT22;10854;45.922;6.716;2023-04-19T10:06:17;22.30;45.80
21387;DHT22;10854;45.922;6.716;2023-04-19T10:08:49;22.40;44.60
21387;DHT22;10854;45.922;6.716;2023-04-19T10:11:21;22.40;44.50
21387;DHT22;10854;45.922;6.716;2023-04-19T10:13:53;22.30;44.10
21387;DHT22;10854;45.922;6.716;2023-04-19T10:16:25;22.10;44.60
21387;DHT22;10854;45.922;6.716;2023-04-19T10:19:02;22.10;45.20
21387;DHT22;10854;45.922;6.716;2023-04-19T10:21:32;22.10;45.30
21387;DHT22;10854;45.922;6.716;2023-04-19T10:24:03;22.30;45.30
21387;DHT22;10854;45.922;6.716;2023-04-19T10:27:11;22.60;44.90
21387;DHT22;10854;45.922;6.716;2023-04-19T10:30:02;22.70;45.10
21387;DHT22;10854;45.922;6.716;2023-04-19T10:32:41;23.20;45.30
21387;DHT22;10854;45.922;6.716;2023-04-19T10:35:21;23.80;44.80
21387;DHT22;10854;45.922;6.716;2023-04-19T10:38:13;24.30;44.70
21387;DHT22;10854;45.922;6.716;2023-04-19T10:40:55;24.70;43.60
21387;DHT22;10854;45.922;6.716;2023-04-19T10:43:28;24.70;43.20
21387;DHT22;10854;45.922;6.716;2023-04-19T10:46:12;24.60;43.40
21387;DHT22;10854;45.922;6.716;2023-04-19T10:49:01;24.40;44.00
21387;DHT22;10854;45.922;6.716;2023-04-19T10:51:40;24.60;44.30
21387;DHT22;10854;45.922;6.716;2023-04-19T10:54:32;24.70;43.40
21387;DHT22;10854;45.922;6.716;2023-04-19T10:57:07;24.50;43.70
21387;DHT22;10854;45.922;6.716;2023-04-19T10:59:37;24.50;44.00
21387;DHT22;10854;45.922;6.716;2023-04-19T11:07:19;23.50;43.10
21387;DHT22;10854;45.922;6.716;2023-04-19T11:09:51;23.20;43.70
21387;DHT22;10854;45.922;6.716;2023-04-19T11:12:20;23.30;43.90
21387;DHT22;10854;45.922;6.716;2023-04-19T11:14:56;23.40;43.70
21387;DHT22;10854;45.922;6.716;2023-04-19T11:17:29;23.50;43.10
21387;DHT22;10854;45.922;6.716;2023-04-19T11:20:03;23.60;43.10
21387;DHT22;10854;45.922;6.716;2023-04-19T11:22:38;23.90;43.40
21387;DHT22;10854;45.922;6.716;2023-04-19T11:27:42;23.90;43.20
21387;DHT22;10854;45.922;6.716;2023-04-19T11:30:13;23.70;43.80
21387;DHT22;10854;45.922;6.716;2023-04-19T11:32:52;23.70;43.30
21387;DHT22;10854;45.922;6.716;2023-04-19T11:35:24;23.60;43.80
21387;DHT22;10854;45.922;6.716;2023-04-19T11:37:54;23.40;42.30
21387;DHT22;10854;45.922;6.716;2023-04-19T11:40:24;23.40;43.90
21387;DHT22;10854;45.922;6.716;2023-04-19T11:42:57;23.40;44.70
21387;DHT22;10854;45.922;6.716;2023-04-19T11:45:34;23.30;44.20
21387;DHT22;10854;45.922;6.716;2023-04-19T11:48:08;23.40;44.40
21387;DHT22;10854;45.922;6.716;2023-04-19T11:50:44;23.70;44.40
21387;DHT22;10854;45.922;6.716;2023-04-19T11:53:17;24.00;44.00
21387;DHT22;10854;45.922;6.716;2023-04-19T11:55:50;24.40;44.10
21387;DHT22;10854;45.922;6.716;2023-04-19T11:58:25;24.90;43.30
21387;DHT22;10854;45.922;6.716;2023-04-19T12:01:01;25.10;43.00
21387;DHT22;10854;45.922;6.716;2023-04-19T12:03:32;25.20;43.40
21387;DHT22;10854;45.922;6.716;2023-04-19T12:06:02;25.20;43.50
21387;DHT22;10854;45.922;6.716;2023-04-19T12:08:35;25.40;42.90
21387;DHT22;10854;45.922;6.716;2023-04-19T12:11:05;25.40;42.80
21387;DHT22;10854;45.922;6.716;2023-04-19T12:13:34;25.60;42.40
21387;DHT22;10854;45.922;6.716;2023-04-19T12:16:03;25.70;41.90
21387;DHT22;10854;45.922;6.716;2023-04-19T12:18:51;25.50;40.30
21387;DHT22;10854;45.922;6.716;2023-04-19T12:21:27;25.60;40.00
21387;DHT22;10854;45.922;6.716;2023-04-19T12:23:59;26.10;40.40
21387;DHT22;10854;45.922;6.716;2023-04-19T12:26:28;26.40;40.20
21387;DHT22;10854;45.922;6.716;2023-04-19T12:28:59;26.40;39.60
21387;DHT22;10854;45.922;6.716;2023-04-19T12:31:29;26.50;39.80
21387;DHT22;10854;45.922;6.716;2023-04-19T12:33:59;26.20;39.20
21387;DHT22;10854;45.922;6.716;2023-04-19T12:36:27;26.10;39.60
21387;DHT22;10854;45.922;6.716;2023-04-19T12:38:57;26.10;39.50
21387;DHT22;10854;45.922;6.716;2023-04-19T12:41:26;25.80;38.80
21387;DHT22;10854;45.922;6.716;2023-04-19T12:43:55;25.60;37.90
21387;DHT22;10854;45.922;6.716;2023-04-19T12:46:23;25.20;37.80
21387;DHT22;10854;45.922;6.716;2023-04-19T12:48:51;24.60;37.30
21387;DHT22;10854;45.922;6.716;2023-04-19T12:51:20;23.90;36.60
21387;DHT22;10854;45.922;6.716;2023-04-19T12:53:49;23.30;38.50
21387;DHT22;10854;45.922;6.716;2023-04-19T12:56:17;23.10;40.00
21387;DHT22;10854;45.922;6.716;2023-04-19T12:58:46;23.00;39.30
21387;DHT22;10854;45.922;6.716;2023-04-19T13:01:14;22.80;38.20
21387;DHT22;10854;45.922;6.716;2023-04-19T13:03:43;22.60;37.80
21387;DHT22;10854;45.922;6.716;2023-04-19T13:06:11;22.40;37.50
21387;DHT22;10854;45.922;6.716;2023-04-19T13:08:42;22.30;37.40
21387;DHT22;10854;45.922;6.716;2023-04-19T13:11:12;22.00;36.90
21387;DHT22;10854;45.922;6.716;2023-04-19T13:13:41;21.70;37.60
21387;DHT22;10854;45.922;6.716;2023-04-19T13:16:09;21.50;37.80
21387;DHT22;10854;45.922;6.716;2023-04-19T13:18:38;21.40;38.10
21387;DHT22;10854;45.922;6.716;2023-04-19T13:21:06;21.30;39.70
21387;DHT22;10854;45.922;6.716;2023-04-19T13:23:35;21.10;40.20
21387;DHT22;10854;45.922;6.716;2023-04-19T13:26:03;21.20;40.90
21387;DHT22;10854;45.922;6.716;2023-04-19T13:28:32;21.30;41.10
21387;DHT22;10854;45.922;6.716;2023-04-19T13:31:05;21.50;41.40
21387;DHT22;10854;45.922;6.716;2023-04-19T13:33:33;21.60;41.10
21387;DHT22;10854;45.922;6.716;2023-04-19T13:36:02;21.70;41.10
21387;DHT22;10854;45.922;6.716;2023-04-19T13:38:30;22.00;41.10
21387;DHT22;10854;45.922;6.716;2023-04-19T13:40:59;22.20;40.60
21387;DHT22;10854;45.922;6.716;2023-04-19T13:43:27;22.60;39.60
21387;DHT22;10854;45.922;6.716;2023-04-19T13:45:56;23.00;38.30
21387;DHT22;10854;45.922;6.716;2023-04-19T13:48:24;23.20;37.50
21387;DHT22;10854;45.922;6.716;2023-04-19T13:50:56;23.10;36.90
21387;DHT22;10854;45.922;6.716;2023-04-19T13:53:26;23.20;36.60
21387;DHT22;10854;45.922;6.716;2023-04-19T13:55:56;23.60;36.50
21387;DHT22;10854;45.922;6.716;2023-04-19T13:58:25;23.80;35.70
21387;DHT22;10854;45.922;6.716;2023-04-19T14:00:54;23.60;34.90
21387;DHT22;10854;45.922;6.716;2023-04-19T14:03:23;23.20;35.00
21387;DHT22;10854;45.922;6.716;2023-04-19T14:05:51;22.80;35.90
21387;DHT22;10854;45.922;6.716;2023-04-19T14:08:20;22.40;36.00
21387;DHT22;10854;45.922;6.716;2023-04-19T14:10:49;22.00;36.40
21387;DHT22;10854;45.922;6.716;2023-04-19T14:13:18;21.80;37.20
21387;DHT22;10854;45.922;6.716;2023-04-19T14:15:46;21.50;38.10
21387;DHT22;10854;45.922;6.716;2023-04-19T14:18:15;21.50;38.90
21387;DHT22;10854;45.922;6.716;2023-04-19T14:20:43;21.50;39.60
21387;DHT22;10854;45.922;6.716;2023-04-19T14:23:12;21.50;39.80
21387;DHT22;10854;45.922;6.716;2023-04-19T14:25:41;21.40;40.00
21387;DHT22;10854;45.922;6.716;2023-04-19T14:28:09;21.20;39.80
21387;DHT22;10854;45.922;6.716;2023-04-19T14:30:40;21.00;40.10
21387;DHT22;10854;45.922;6.716;2023-04-19T14:33:08;20.80;40.70
21387;DHT22;10854;45.922;6.716;2023-04-19T14:35:37;20.60;41.60
21387;DHT22;10854;45.922;6.716;2023-04-19T14:38:05;20.60;42.60
21387;DHT22;10854;45.922;6.716;2023-04-19T14:40:34;20.60;43.40
21387;DHT22;10854;45.922;6.716;2023-04-19T14:43:02;20.70;43.50
21387;DHT22;10854;45.922;6.716;2023-04-19T14:45:30;20.80;43.30
21387;DHT22;10854;45.922;6.716;2023-04-19T14:47:59;21.10;43.30
21387;DHT22;10854;45.922;6.716;2023-04-19T14:50:27;21.30;42.70
21387;DHT22;10854;45.922;6.716;2023-04-19T14:52:55;21.50;41.40
21387;DHT22;10854;45.922;6.716;2023-04-19T14:55:24;21.80;40.50
21387;DHT22;10854;45.922;6.716;2023-04-19T14:57:53;22.30;39.40
21387;DHT22;10854;45.922;6.716;2023-04-19T15:00:22;22.60;39.10
21387;DHT22;10854;45.922;6.716;2023-04-19T15:02:50;22.70;39.60
21387;DHT22;10854;45.922;6.716;2023-04-19T15:05:21;22.60;39.70
21387;DHT22;10854;45.922;6.716;2023-04-19T15:07:51;22.60;39.60
21387;DHT22;10854;45.922;6.716;2023-04-19T15:10:19;22.40;40.10
21387;DHT22;10854;45.922;6.716;2023-04-19T15:12:49;22.20;40.20
21387;DHT22;10854;45.922;6.716;2023-04-19T15:15:17;22.10;39.70
21387;DHT22;10854;45.922;6.716;2023-04-19T15:17:45;22.20;39.60
21387;DHT22;10854;45.922;6.716;2023-04-19T15:20:14;22.60;39.50
21387;DHT22;10854;45.922;6.716;2023-04-19T15:22:42;23.00;38.90
21387;DHT22;10854;45.922;6.716;2023-04-19T15:25:10;23.20;38.60
21387;DHT22;10854;45.922;6.716;2023-04-19T15:27:39;23.10;37.80
21387;DHT22;10854;45.922;6.716;2023-04-19T15:30:08;22.70;37.70
21387;DHT22;10854;45.922;6.716;2023-04-19T15:32:36;22.40;38.10
21387;DHT22;10854;45.922;6.716;2023-04-19T15:35:05;22.20;37.80
21387;DHT22;10854;45.922;6.716;2023-04-19T15:37:34;22.20;37.90
21387;DHT22;10854;45.922;6.716;2023-04-19T15:40:02;22.40;37.90
21387;DHT22;10854;45.922;6.716;2023-04-19T15:42:30;22.80;37.80
21387;DHT22;10854;45.922;6.716;2023-04-19T15:44:59;23.20;37.80
21387;DHT22;10854;45.922;6.716;2023-04-19T15:47:27;23.40;37.60
21387;DHT22;10854;45.922;6.716;2023-04-19T15:49:55;23.50;37.90
21387;DHT22;10854;45.922;6.716;2023-04-19T15:52:24;23.40;37.60
21387;DHT22;10854;45.922;6.716;2023-04-19T15:54:53;23.50;38.20
21387;DHT22;10854;45.922;6.716;2023-04-19T15:57:21;23.30;38.30
21387;DHT22;10854;45.922;6.716;2023-04-19T15:59:52;23.20;38.10
21387;DHT22;10854;45.922;6.716;2023-04-19T16:02:20;23.00;37.90
21387;DHT22;10854;45.922;6.716;2023-04-19T16:04:49;22.90;37.60